createdAt,value
2022-08-17T00:01:03.646Z,22.76
2022-08-17T00:06:04.257Z,22.75
2022-08-17T00:11:05.274Z,22.76
2022-08-17T00:16:05.657Z,22.76
2022-08-17T00:21:10.721Z,22.76
2022-08-17T00:26:07.213Z,22.73
2022-08-17T00:31:08.026Z,22.55
2022-08-17T00:36:08.823Z,22.47
2022-08-17T00:41:09.550Z,22.47
2022-08-17T00:46:10.286Z,22.57
2022-08-17T00:51:11.108Z,22.52
2022-08-17T00:56:12.002Z,22.46
2022-08-17T01:01:12.929Z,22.43
2022-08-17T01:06:14.367Z,22.36
2022-08-17T01:11:14.198Z,22.20
2022-08-17T01:16:14.884Z,21.79
2022-08-17T01:21:15.635Z,21.74
2022-08-17T01:26:16.383Z,21.77
2022-08-17T01:31:17.093Z,21.74
2022-08-17T01:36:18.095Z,21.67
2022-08-17T01:41:18.934Z,21.68
2022-08-17T01:46:19.778Z,21.72
2022-08-17T01:51:20.625Z,21.75
2022-08-17T01:56:21.495Z,21.82
2022-08-17T02:01:22.318Z,21.72
2022-08-17T02:06:27.679Z,21.67
2022-08-17T02:11:24.849Z,21.61
2022-08-17T02:16:24.756Z,21.53
2022-08-17T02:21:25.686Z,21.46
2022-08-17T02:26:26.170Z,21.38
2022-08-17T02:31:26.521Z,21.32
2022-08-17T02:36:27.590Z,21.24
2022-08-17T02:41:27.817Z,21.14
2022-08-17T02:46:28.581Z,21.13
2022-08-17T02:51:29.352Z,21.16
2022-08-17T02:56:30.049Z,21.17
2022-08-17T03:01:30.892Z,21.12
2022-08-17T03:06:31.590Z,21.07
2022-08-17T03:11:32.309Z,21.13
2022-08-17T03:16:33.091Z,21.21
2022-08-17T03:21:40.761Z,21.21
2022-08-17T03:26:34.645Z,21.16
2022-08-17T03:31:37.039Z,21.13
2022-08-17T03:36:36.027Z,21.12
2022-08-17T03:41:36.437Z,21.13
2022-08-17T03:46:37.146Z,21.16
2022-08-17T03:51:37.749Z,21.06
2022-08-17T03:56:38.649Z,21.03
2022-08-17T04:01:39.504Z,21.01
2022-08-17T04:06:40.136Z,21.12
2022-08-17T04:11:41.010Z,21.16
2022-08-17T04:16:41.785Z,21.16
2022-08-17T04:21:42.688Z,21.17
2022-08-17T04:26:53.157Z,21.21
2022-08-17T04:31:45.004Z,21.22
2022-08-17T04:36:50.082Z,21.27
2022-08-17T04:41:46.260Z,21.44
2022-08-17T04:46:46.042Z,21.59
2022-08-17T04:51:54.658Z,21.65
2022-08-17T04:56:48.188Z,21.74
2022-08-17T05:01:49.161Z,21.77
2022-08-17T05:06:48.600Z,22.10
2022-08-17T05:11:49.277Z,23.02
2022-08-17T05:16:50.134Z,23.73
2022-08-17T05:21:50.961Z,24.37
2022-08-17T05:26:51.333Z,24.58
2022-08-17T05:31:52.144Z,24.52
2022-08-17T05:36:53.051Z,24.32
2022-08-17T05:41:53.708Z,24.25
2022-08-17T05:46:54.576Z,24.34
2022-08-17T05:51:55.365Z,24.42
2022-08-17T05:56:56.032Z,24.50
2022-08-17T06:01:56.822Z,24.47
2022-08-17T06:06:57.440Z,24.64
2022-08-17T06:11:58.801Z,24.83
2022-08-17T06:16:59.088Z,24.96
2022-08-17T06:21:59.703Z,25.03
2022-08-17T06:27:00.388Z,25.05
2022-08-17T06:32:01.159Z,25.00
2022-08-17T06:37:01.769Z,25.08
2022-08-17T06:42:02.448Z,25.17
2022-08-17T06:47:03.253Z,25.28
2022-08-17T06:52:03.879Z,25.51
2022-08-17T06:57:04.545Z,25.76
2022-08-17T07:02:05.256Z,26.02
2022-08-17T07:07:05.945Z,26.18
2022-08-17T07:12:06.622Z,26.36
2022-08-17T07:17:07.353Z,26.48
2022-08-17T07:22:08.005Z,26.66
2022-08-17T07:27:08.687Z,26.80
2022-08-17T07:32:09.404Z,26.88
2022-08-17T07:37:10.075Z,27.07
2022-08-17T07:42:10.753Z,27.24
2022-08-17T07:47:11.470Z,27.34
2022-08-17T07:52:47.724Z,27.54
2022-08-17T07:57:13.692Z,27.77
2022-08-17T08:02:13.455Z,27.90
2022-08-17T08:07:14.063Z,28.03
2022-08-17T08:12:16.002Z,28.18
2022-08-17T08:17:15.474Z,28.25
2022-08-17T08:22:16.295Z,28.34
2022-08-17T08:27:16.952Z,28.40
2022-08-17T08:32:17.669Z,28.29
2022-08-17T08:37:27.458Z,28.31
2022-08-17T08:42:19.882Z,28.51
2022-08-17T08:47:19.656Z,28.64
2022-08-17T08:52:20.317Z,28.88
2022-08-17T08:57:26.716Z,29.04
2022-08-17T09:02:22.805Z,29.00
2022-08-17T09:07:22.515Z,29.08
2022-08-17T09:12:23.178Z,29.19
2022-08-17T09:17:23.916Z,29.26
2022-08-17T09:22:31.701Z,29.39
2022-08-17T09:27:25.325Z,29.24
2022-08-17T09:32:26.045Z,29.43
2022-08-17T09:37:26.726Z,29.21
2022-08-17T09:42:27.422Z,29.49
2022-08-17T09:47:28.113Z,29.71
2022-08-17T09:52:28.773Z,29.97
2022-08-17T09:57:31.034Z,30.31
2022-08-17T10:02:30.084Z,30.58
2022-08-17T10:07:30.815Z,30.42
2022-08-17T10:12:31.416Z,30.70
2022-08-17T10:17:32.127Z,31.07
2022-08-17T10:22:37.765Z,31.16
2022-08-17T10:27:34.312Z,31.12
2022-08-17T10:32:34.021Z,30.89
2022-08-17T10:37:34.772Z,30.82
2022-08-17T10:42:35.518Z,30.99
2022-08-17T10:47:54.685Z,31.41
2022-08-17T10:52:37.889Z,31.25
2022-08-17T10:57:37.514Z,30.75
2022-08-17T11:02:38.208Z,31.06
2022-08-17T11:07:38.891Z,31.47
2022-08-17T11:12:39.571Z,31.63
2022-08-17T11:17:40.050Z,31.96
2022-08-17T11:22:40.728Z,31.75
2022-08-17T11:27:41.408Z,31.68
2022-08-17T11:32:47.477Z,31.70
2022-08-17T11:37:43.627Z,31.65
2022-08-17T11:42:43.362Z,31.54
2022-08-17T11:47:56.952Z,31.54
2022-08-17T11:52:46.742Z,31.36
2022-08-17T11:57:45.247Z,31.66
2022-08-17T12:02:48.462Z,32.30
2022-08-17T12:07:46.410Z,32.29
2022-08-17T12:12:47.083Z,32.07
2022-08-17T12:17:47.735Z,32.13
2022-08-17T12:22:48.606Z,32.22
2022-08-17T12:28:05.273Z,32.15
2022-08-17T12:32:50.831Z,31.92
2022-08-17T12:37:50.762Z,31.92
2022-08-17T12:42:51.057Z,31.76
2022-08-17T12:47:52.029Z,32.01
2022-08-17T12:52:52.358Z,32.14
2022-08-17T12:57:53.936Z,31.99
2022-08-17T13:02:53.606Z,32.23
2022-08-17T13:07:54.287Z,32.00
2022-08-17T13:12:54.983Z,31.65
2022-08-17T13:17:55.709Z,31.46
2022-08-17T13:22:56.386Z,31.35
2022-08-17T13:27:57.084Z,31.28
2022-08-17T13:32:57.772Z,31.39
2022-08-17T13:37:58.410Z,31.46
2022-08-17T13:42:59.122Z,31.51
2022-08-17T13:47:59.806Z,31.65
2022-08-17T13:53:00.472Z,31.91
2022-08-17T13:58:04.147Z,31.88
2022-08-17T14:03:02.752Z,31.72
2022-08-17T14:08:02.426Z,31.66
2022-08-17T14:13:03.207Z,31.68
2022-08-17T14:18:03.882Z,31.92
2022-08-17T14:23:04.534Z,31.86
2022-08-17T14:28:05.308Z,31.76
2022-08-17T14:33:05.971Z,31.76
2022-08-17T14:38:06.583Z,31.93
2022-08-17T14:43:07.358Z,32.01
2022-08-17T14:48:08.041Z,31.99
2022-08-17T14:53:08.721Z,31.78
2022-08-17T14:58:10.446Z,31.70
2022-08-17T15:03:10.086Z,31.62
2022-08-17T15:08:10.794Z,31.73
2022-08-17T15:13:11.476Z,31.76
2022-08-17T15:18:12.123Z,31.69
2022-08-17T15:23:12.785Z,31.62
2022-08-17T15:28:20.480Z,31.63
2022-08-17T15:33:14.118Z,31.57
2022-08-17T15:38:14.854Z,31.47
2022-08-17T15:43:15.525Z,31.56
2022-08-17T15:48:16.192Z,31.56
2022-08-17T15:53:16.903Z,31.46
2022-08-17T15:58:17.590Z,31.54
2022-08-17T16:04:01.263Z,31.68
2022-08-17T16:08:21.247Z,31.68
2022-08-17T16:13:19.662Z,31.50
2022-08-17T16:18:20.334Z,31.36
2022-08-17T16:23:21.012Z,31.06
2022-08-17T16:28:21.669Z,30.98
2022-08-17T16:33:22.358Z,31.10
2022-08-17T16:38:23.013Z,31.12
2022-08-17T16:43:23.706Z,31.10
2022-08-17T16:48:24.379Z,30.95
2022-08-17T16:53:25.092Z,30.83
2022-08-17T16:58:25.779Z,30.64
2022-08-17T17:03:26.450Z,30.54
2022-08-17T17:08:27.146Z,30.45
2022-08-17T17:13:27.887Z,30.39
2022-08-17T17:18:28.545Z,30.34
2022-08-17T17:23:29.232Z,30.37
2022-08-17T17:28:29.900Z,30.34
2022-08-17T17:33:34.070Z,30.26
2022-08-17T17:38:31.447Z,30.20
2022-08-17T17:43:40.541Z,30.16
2022-08-17T17:48:33.667Z,30.22
2022-08-17T17:53:34.810Z,30.29
2022-08-17T17:58:34.924Z,30.07
2022-08-17T18:03:34.637Z,29.80
2022-08-17T18:08:35.257Z,29.53
2022-08-17T18:13:36.000Z,29.28
2022-08-17T18:18:36.562Z,29.06
2022-08-17T18:23:37.417Z,28.89
2022-08-17T18:28:38.064Z,28.77
2022-08-17T18:33:38.733Z,28.64
2022-08-17T18:38:39.419Z,28.55
2022-08-17T18:43:43.966Z,28.41
2022-08-17T18:48:41.643Z,28.31
2022-08-17T18:53:42.315Z,28.21
2022-08-17T18:58:42.027Z,28.12
2022-08-17T19:03:42.695Z,27.99
2022-08-17T19:08:43.430Z,27.87
2022-08-17T19:13:44.202Z,27.72
2022-08-17T19:18:44.959Z,27.59
2022-08-17T19:23:53.885Z,27.47
2022-08-17T19:28:48.582Z,27.39
2022-08-17T19:33:48.030Z,27.32
2022-08-17T19:38:47.339Z,27.21
2022-08-17T19:43:48.171Z,27.17
2022-08-17T19:48:49.943Z,27.07
2022-08-17T19:54:04.854Z,26.99
2022-08-17T19:58:51.431Z,26.89
2022-08-17T20:03:50.754Z,26.77
2022-08-17T20:08:51.480Z,26.69
2022-08-17T20:13:52.196Z,26.60
2022-08-17T20:18:52.934Z,26.50
2022-08-17T20:23:53.710Z,26.44
2022-08-17T20:28:54.400Z,26.35
2022-08-17T20:33:55.121Z,26.28
2022-08-17T20:38:55.883Z,26.17
2022-08-17T20:43:56.652Z,26.05
2022-08-17T20:48:57.377Z,25.98
2022-08-17T20:53:58.138Z,25.91
2022-08-17T20:58:58.869Z,25.83
2022-08-17T21:03:59.609Z,25.75
2022-08-17T21:09:00.344Z,25.69
2022-08-17T21:14:01.079Z,25.60
2022-08-17T21:19:01.797Z,25.55
2022-08-17T21:24:02.543Z,25.51
2022-08-17T21:29:30.994Z,25.45
2022-08-17T21:34:03.829Z,25.40
2022-08-17T21:39:04.638Z,25.39
2022-08-17T21:44:05.362Z,25.36
2022-08-17T21:49:13.306Z,25.35
2022-08-17T21:54:07.713Z,25.27
2022-08-17T21:59:07.628Z,25.24
2022-08-17T22:04:08.340Z,25.18
2022-08-17T22:09:09.136Z,25.13
2022-08-17T22:14:09.869Z,25.08
2022-08-17T22:19:10.625Z,25.06
2022-08-17T22:24:11.371Z,25.05
2022-08-17T22:29:12.091Z,25.00
2022-08-17T22:34:12.839Z,25.00
2022-08-17T22:39:13.585Z,24.95
2022-08-17T22:44:14.347Z,24.88
2022-08-17T22:49:15.135Z,24.81
2022-08-17T22:54:15.837Z,24.76
2022-08-17T22:59:16.618Z,24.69
2022-08-17T23:04:17.339Z,24.69
2022-08-17T23:09:18.129Z,24.68
2022-08-17T23:14:18.851Z,24.62
2022-08-17T23:19:19.597Z,24.53
2022-08-17T23:24:20.363Z,24.52
2022-08-17T23:29:21.106Z,24.50
2022-08-17T23:34:21.807Z,24.50
2022-08-17T23:39:27.818Z,24.43
2022-08-17T23:44:24.232Z,24.40
2022-08-17T23:49:23.955Z,24.31
2022-08-17T23:54:24.732Z,24.18
2022-08-17T23:59:25.470Z,24.13
